Terminal Aerodrome Forecast
Issued by NWS Jacksonville, FL

Home | Current Version | Previous Version | Text Only | Print | Product List | Glossary On
Versions: 1 2 3 4 5 6 7 8 9 10 11 12 13 14 15
000
FTUS42 KJAX 210500
TAFSSI
TAF
KSSI 210521Z 2106/2206 19004KT P6SM SCT035 BKN250
      TEMPO 2108/2112 BKN025
     FM211500 31006KT P6SM SCT250
     FM220000 VRB04KT P6SM SKC=

USA.gov is the U.S. government's official web portal to all federal, state and local government web resources and services.